Time;durP1;ratioP1;P1;durP2;ratioP2;P2;SDS_P1;SDS_P2;PMS_P1;PMS_P2;Temp;Humidity;BMP_temperature;BMP_pressure;BME280_temperature;BME280_humidity;BME280_pressure;Samples;Min_cycle;Max_cycle;Signal;HPM_P1;HPM_P2
2021/01/28 00:00:03;;;;;;;79.55;31.13;;;5.90;99.90;;;;;;5011998;28;20032;-65
2021/01/28 00:02:29;;;;;;;68.18;28.45;;;5.90;99.90;;;;;;5025300;28;20027;-65
2021/01/28 00:04:54;;;;;;;68.80;28.25;;;5.90;99.90;;;;;;5023811;28;20124;-66
2021/01/28 00:07:20;;;;;;;68.70;27.45;;;5.90;99.90;;;;;;5011432;28;20041;-65
2021/01/28 00:09:45;;;;;;;66.72;27.98;;;6.00;99.90;;;;;;5039296;28;20556;-65
2021/01/28 00:12:11;;;;;;;73.53;29.17;;;5.90;99.90;;;;;;5010241;28;20026;-67
2021/01/28 00:14:36;;;;;;;71.35;29.95;;;5.90;99.90;;;;;;5011373;28;20087;-65
2021/01/28 00:17:02;;;;;;;78.72;31.42;;;6.00;99.90;;;;;;5010101;28;20038;-64
2021/01/28 00:19:28;;;;;;;78.43;29.08;;;5.90;99.90;;;;;;5010954;28;20487;-63
2021/01/28 00:21:54;;;;;;;70.32;33.20;;;5.90;99.90;;;;;;5010111;28;20030;-66
2021/01/28 00:24:20;;;;;;;84.82;34.28;;;6.00;99.90;;;;;;5016022;28;20053;-65
2021/01/28 00:26:45;;;;;;;82.63;31.40;;;6.00;99.90;;;;;;5029804;28;20099;-63
2021/01/28 00:29:11;;;;;;;86.15;33.92;;;6.00;99.90;;;;;;5030976;28;20029;-65
2021/01/28 00:31:37;;;;;;;82.30;32.38;;;6.00;99.90;;;;;;5031454;28;20041;-65
2021/01/28 00:34:03;;;;;;;81.20;32.08;;;6.00;99.90;;;;;;5031195;28;20134;-65
2021/01/28 00:36:28;;;;;;;104.18;34.15;;;6.00;99.90;;;;;;5030412;28;20040;-65
2021/01/28 00:38:54;;;;;;;91.07;34.40;;;6.00;99.90;;;;;;5029787;28;20034;-65
2021/01/28 00:41:19;;;;;;;85.07;31.10;;;6.00;99.90;;;;;;5030391;28;20092;-65
2021/01/28 00:43:45;;;;;;;77.57;31.90;;;6.00;99.90;;;;;;5029772;28;20036;-64
2021/01/28 00:46:11;;;;;;;85.88;30.77;;;6.10;99.90;;;;;;5013598;28;20018;-64
2021/01/28 00:51:21;;;;;;;80.07;34.85;;;6.00;99.90;;;;;;4987309;28;20057;-63
2021/01/28 00:53:47;;;;;;;82.03;31.27;;;6.00;99.90;;;;;;4989361;28;20482;-64
2021/01/28 00:56:12;;;;;;;95.05;31.63;;;6.10;99.90;;;;;;4989989;28;20030;-63
2021/01/28 00:58:38;;;;;;;88.60;33.72;;;6.10;99.90;;;;;;4990269;28;20493;-63
2021/01/28 01:01:03;;;;;;;106.13;38.03;;;6.10;99.90;;;;;;4989595;28;20238;-63
2021/01/28 01:03:29;;;;;;;91.82;32.28;;;6.10;99.90;;;;;;4991160;28;20066;-63
2021/01/28 01:05:56;;;;;;;97.38;35.42;;;6.10;99.90;;;;;;4990748;28;20227;-63
2021/01/28 01:08:29;;;;;;;99.72;39.28;;;6.10;99.90;;;;;;4992346;28;20026;-63
2021/01/28 01:11:01;;;;;;;94.25;35.65;;;6.10;99.90;;;;;;4991771;28;20030;-63
2021/01/28 01:13:29;;;;;;;92.47;35.92;;;6.10;99.90;;;;;;4984972;28;20493;-62
2021/01/28 01:15:55;;;;;;;102.10;35.45;;;6.10;99.90;;;;;;4992673;28;20427;-63
2021/01/28 01:18:25;;;;;;;109.38;35.63;;;6.00;99.90;;;;;;4990984;28;20489;-63
2021/01/28 01:20:52;;;;;;;92.43;36.00;;;6.10;99.90;;;;;;4992892;28;20038;-63
2021/01/28 01:23:17;;;;;;;107.35;37.45;;;6.10;99.90;;;;;;4991642;28;20103;-61
2021/01/28 01:25:43;;;;;;;110.80;38.28;;;6.10;99.90;;;;;;4992430;28;20522;-62
2021/01/28 01:28:09;;;;;;;96.05;37.00;;;6.10;99.90;;;;;;4990727;28;20481;-63
2021/01/28 01:30:35;;;;;;;106.50;38.85;;;6.10;99.90;;;;;;4990643;28;20168;-63
2021/01/28 01:33:01;;;;;;;105.45;37.22;;;6.10;99.90;;;;;;4991232;28;20088;-63
2021/01/28 01:35:27;;;;;;;105.03;37.03;;;6.10;99.90;;;;;;4992347;28;20496;-63
2021/01/28 01:37:54;;;;;;;106.68;35.45;;;6.20;99.90;;;;;;4992154;28;20030;-63
2021/01/28 01:40:28;;;;;;;103.85;37.05;;;6.10;99.90;;;;;;4991989;28;20065;-63
2021/01/28 01:42:55;;;;;;;115.55;37.72;;;6.10;99.90;;;;;;4992266;28;20557;-63
2021/01/28 01:45:29;;;;;;;94.05;34.17;;;6.10;99.90;;;;;;4991086;28;20045;-64
2021/01/28 01:48:02;;;;;;;110.70;34.05;;;6.10;99.90;;;;;;4991994;28;20030;-64
2021/01/28 01:50:43;;;;;;;91.72;34.63;;;6.20;99.90;;;;;;4991665;28;20082;-64
2021/01/28 01:53:15;;;;;;;107.05;32.45;;;6.20;99.90;;;;;;4991423;28;20481;-64
2021/01/28 01:55:46;;;;;;;96.80;34.78;;;6.20;99.90;;;;;;4992099;28;20058;-63
2021/01/28 01:58:15;;;;;;;88.75;31.75;;;6.20;99.90;;;;;;4990528;28;20031;-64
2021/01/28 02:00:41;;;;;;;102.28;36.80;;;6.20;99.90;;;;;;4991571;28;20034;-62
2021/01/28 02:03:11;;;;;;;109.90;35.75;;;6.20;99.90;;;;;;4990996;28;20470;-62
2021/01/28 02:05:40;;;;;;;109.88;38.08;;;6.20;99.90;;;;;;4991833;28;20076;-63
2021/01/28 02:08:06;;;;;;;116.75;36.92;;;;;;;;;;4991661;28;20374;-62
2021/01/28 02:10:32;;;;;;;102.75;35.10;;;;;;;;;;4990101;28;20034;-63
2021/01/28 02:13:00;;;;;;;103.07;34.13;;;;;;;;;;4990387;28;20022;-63
2021/01/28 02:15:26;;;;;;;98.28;35.58;;;;;;;;;;4991621;28;20034;-63
2021/01/28 02:17:53;;;;;;;107.70;32.97;;;;;;;;;;4991575;28;20437;-64
2021/01/28 02:20:38;;;;;;;105.25;33.60;;;;;;;;;;4989546;28;20509;-63
2021/01/28 02:23:08;;;;;;;99.97;35.47;;;;;;;;;;4990594;28;20026;-64
2021/01/28 02:25:36;;;;;;;99.80;32.70;;;;;;;;;;4983505;28;20073;-64
2021/01/28 02:28:09;;;;;;;101.88;36.08;;;;;;;;;;4989770;28;20045;-63
2021/01/28 02:30:36;;;;;;;98.20;34.15;;;;;;;;;;4989282;28;20545;-64
2021/01/28 02:33:03;;;;;;;100.93;34.83;;;;;;;;;;4991422;28;20394;-63
2021/01/28 02:35:30;;;;;;;122.82;37.75;;;;;;;;;;4990199;28;20026;-63
2021/01/28 02:37:58;;;;;;;106.95;36.92;;;;;;;;;;4989489;28;20227;-62
2021/01/28 02:40:25;;;;;;;103.47;35.67;;;;;;;;;;4991387;28;20033;-63
2021/01/28 02:42:51;;;;;;;105.90;37.63;;;;;;;;;;4991236;28;20339;-63
2021/01/28 02:45:31;;;;;;;110.88;35.40;;;;;;;;;;4991177;28;20034;-63
2021/01/28 02:48:03;;;;;;;106.90;37.42;;;;;;;;;;4991116;28;20516;-63
2021/01/28 02:50:29;;;;;;;101.70;34.75;;;;;;;;;;4990626;28;20034;-63
2021/01/28 02:52:57;;;;;;;108.35;36.03;;;;;;;;;;4991266;28;20113;-62
2021/01/28 02:55:25;;;;;;;113.10;36.03;;;;;;;;;;4991402;28;20435;-63
2021/01/28 02:57:51;;;;;;;117.95;39.17;;;;;;;;;;4990767;28;20034;-63
2021/01/28 03:00:25;;;;;;;121.43;37.30;;;;;;;;;;4990811;28;20049;-63
2021/01/28 03:02:51;;;;;;;111.07;39.05;;;;;;;;;;4991661;28;20106;-63
2021/01/28 03:05:18;;;;;;;111.68;37.65;;;;;;;;;;4990642;28;20418;-63
2021/01/28 03:07:46;;;;;;;124.47;40.30;;;;;;;;;;4992677;28;20115;-63
2021/01/28 03:10:12;;;;;;;117.77;40.03;;;;;;;;;;4992584;28;20034;-62
2021/01/28 03:12:38;;;;;;;127.07;37.03;;;;;;;;;;4995254;28;20281;-63
2021/01/28 03:15:08;;;;;;;115.57;37.00;;;;;;;;;;4994680;28;20093;-63
2021/01/28 03:17:34;;;;;;;118.50;38.05;;;;;;;;;;4996960;28;20054;-63
2021/01/28 03:20:00;;;;;;;117.43;39.85;;;;;;;;;;4996017;28;20080;-63
2021/01/28 03:22:26;;;;;;;118.60;38.95;;;;;;;;;;4996899;28;20420;-63
2021/01/28 03:24:52;;;;;;;119.90;40.90;;;;;;;;;;4996541;28;20029;-63
2021/01/28 03:27:19;;;;;;;130.02;39.40;;;;;;;;;;4995005;28;20026;-63
2021/01/28 03:29:45;;;;;;;117.28;39.00;;;;;;;;;;4994518;28;20034;-63
2021/01/28 03:32:11;;;;;;;108.65;36.38;;;;;;;;;;4995116;28;20037;-61
2021/01/28 03:34:37;;;;;;;120.60;36.97;;;;;;;;;;4994896;28;20109;-62
2021/01/28 03:37:03;;;;;;;114.25;37.15;;;;;;;;;;4994838;28;20473;-62
2021/01/28 03:39:29;;;;;;;105.07;34.90;;;;;;;;;;4992955;28;20054;-68
2021/01/28 03:41:56;;;;;;;120.28;37.75;;;;;;;;;;4993776;28;20030;-63
2021/01/28 03:44:22;;;;;;;110.30;35.80;;;;;;;;;;4993391;28;20031;-63
2021/01/28 03:46:48;;;;;;;117.82;36.00;;;;;;;;;;4994544;28;20046;-63
2021/01/28 03:49:14;;;;;;;112.07;36.28;;;;;;;;;;4993694;28;20088;-63
2021/01/28 03:51:41;;;;;;;110.82;40.72;;;;;;;;;;4993186;28;20030;-63
2021/01/28 03:54:07;;;;;;;115.72;38.22;;;;;;;;;;4993291;28;20049;-63
2021/01/28 03:56:33;;;;;;;71.68;26.05;;;;;;;;;;4993196;28;20023;-63
2021/01/28 03:59:00;;;;;;;40.65;14.35;;;;;;;;;;4993772;28;20034;-63
2021/01/28 04:01:26;;;;;;;28.77;11.07;;;;;;;;;;4994425;28;20033;-63
2021/01/28 04:03:52;;;;;;;29.08;10.48;;;;;;;;;;4994427;28;20398;-63
2021/01/28 04:06:18;;;;;;;27.17;11.95;;;;;;;;;;4994285;28;20042;-63
2021/01/28 04:08:44;;;;;;;22.70;8.73;;;;;;;;;;4993310;28;20088;-63
2021/01/28 04:11:10;;;;;;;23.10;8.77;;;;;;;;;;4993900;28;20023;-63
2021/01/28 04:13:36;;;;;;;23.65;9.57;;;;;;;;;;4994281;28;20440;-63
2021/01/28 04:16:02;;;;;;;21.13;8.20;;;;;;;;;;4994007;28;20502;-63
2021/01/28 04:18:29;;;;;;;23.65;8.07;;;;;;;;;;4991933;28;20113;-63
2021/01/28 04:20:55;;;;;;;23.88;8.98;;;;;;;;;;4994128;28;20072;-64
2021/01/28 04:23:21;;;;;;;24.45;9.45;;;;;;;;;;4994278;28;20393;-64
2021/01/28 04:25:47;;;;;;;26.65;7.85;;;;;;;;;;4993774;28;20394;-64
2021/01/28 04:28:14;;;;;;;22.08;8.55;;;;;;;;;;4992943;28;20057;-65
2021/01/28 04:30:40;;;;;;;21.58;9.10;;;;;;;;;;4993524;28;20030;-64
2021/01/28 04:33:06;;;;;;;27.08;8.15;;;;;;;;;;4992459;28;20543;-65
2021/01/28 04:35:33;;;;;;;20.15;7.97;;;;;;;;;;4992361;28;20110;-64
2021/01/28 04:37:59;;;;;;;26.02;8.63;;;;;;;;;;4993523;28;20082;-64
2021/01/28 04:40:31;;;;;;;25.02;8.27;;;;;;;;;;4992660;28;20399;-65
2021/01/28 04:42:57;;;;;;;25.83;8.60;;;;;;;;;;4993732;28;20101;-64
2021/01/28 04:45:26;;;;;;;21.75;8.45;;;;;;;;;;4992928;28;20664;-64
2021/01/28 04:47:55;;;;;;;22.92;9.45;;;;;;;;;;4994150;28;20032;-65
2021/01/28 04:50:24;;;;;;;23.85;8.70;;;;;;;;;;4988796;28;20694;-64
2021/01/28 04:52:50;;;;;;;22.20;9.05;;;;;;;;;;4993693;28;20077;-64
2021/01/28 04:55:17;;;;;;;24.30;9.18;;;;;;;;;;4993466;28;20057;-64
2021/01/28 04:57:43;;;;;;;23.55;9.25;;;;;;;;;;4993149;28;20422;-64
2021/01/28 05:00:10;;;;;;;26.75;9.13;;;;;;;;;;4992885;28;20562;-64
2021/01/28 05:02:36;;;;;;;19.30;7.72;;;;;;;;;;4992295;28;20038;-64
2021/01/28 05:05:05;;;;;;;24.35;10.35;;;;;;;;;;4993084;28;20107;-64
2021/01/28 05:07:35;;;;;;;24.90;9.43;;;;;;;;;;4993471;28;20026;-64
2021/01/28 05:10:34;;;;;;;20.98;8.00;;;;;;;;;;4987714;28;20372;-65
2021/01/28 05:13:00;;;;;;;22.60;8.25;;;;;;;;;;4992739;28;20027;-64
2021/01/28 05:15:30;;;;;;;21.27;7.55;;;;;;;;;;4993144;28;20061;-65
2021/01/28 05:18:01;;;;;;;22.17;8.65;;;;;;;;;;4992139;28;20046;-64
2021/01/28 05:20:28;;;;;;;23.80;8.57;;;;;;;;;;4992557;28;20026;-64
2021/01/28 05:23:02;;;;;;;22.77;8.75;;;;;;;;;;4991803;28;20548;-64
2021/01/28 05:25:29;;;;;;;21.58;8.00;;;;;;;;;;4991800;28;20026;-64
2021/01/28 05:27:55;;;;;;;20.67;8.07;;;;;;;;;;4992579;28;20394;-63
2021/01/28 05:30:39;;;;;;;20.20;8.02;;;;;;;;;;4992596;28;20026;-65
2021/01/28 05:33:23;;;;;;;24.33;8.32;;;;;;;;;;4992644;28;20026;-64
2021/01/28 05:36:00;;;;;;;20.50;8.43;;;;;;;;;;4991362;28;20118;-65
2021/01/28 05:38:27;;;;;;;21.00;8.13;;;;;;;;;;4990520;28;20053;-62
2021/01/28 05:40:58;;;;;;;23.00;9.23;;;;;;;;;;4991136;28;20121;-64
2021/01/28 05:43:36;;;;;;;22.35;8.02;;;;;;;;;;4990734;28;20351;-64
2021/01/28 05:46:11;;;;;;;22.65;8.25;;;;;;;;;;4992528;28;20097;-64
2021/01/28 05:48:37;;;;;;;25.77;9.40;;;;;;;;;;4990634;28;20398;-64
2021/01/28 05:51:05;;;;;;;23.52;9.02;;;;;;;;;;4992352;28;20128;-64
2021/01/28 05:53:31;;;;;;;24.50;8.77;;;;;;;;;;4992383;28;20033;-64
2021/01/28 05:55:57;;;;;;;25.90;9.40;;;;;;;;;;4993353;28;20034;-64
2021/01/28 05:58:32;;;;;;;24.65;8.63;;;;;;;;;;4993136;28;20022;-64
2021/01/28 06:01:02;;;;;;;32.00;10.20;;;;;;;;;;4993602;28;20026;-64
2021/01/28 06:03:47;;;;;;;24.40;9.02;;;;;;;;;;4992521;28;20027;-63
2021/01/28 06:06:14;;;;;;;24.00;10.00;;;;;;;;;;4993538;28;20499;-64
2021/01/28 06:08:55;;;;;;;25.42;10.55;;;;;;;;;;4992082;28;20256;-64
2021/01/28 06:11:36;;;;;;;28.65;11.43;;;;;;;;;;4991438;28;20030;-64
2021/01/28 06:14:05;;;;;;;24.13;10.13;;;;;;;;;;4971889;28;20026;-64
2021/01/28 06:16:50;;;;;;;25.25;11.35;;;;;;;;;;4989587;28;20022;-63
2021/01/28 06:19:29;;;;;;;26.55;10.32;;;;;;;;;;4990903;28;20054;-64
2021/01/28 06:22:02;;;;;;;24.60;10.25;;;;;;;;;;4991811;28;20049;-65
2021/01/28 06:24:51;;;;;;;23.83;11.52;;;;;;;;;;4990351;28;20073;-62
2021/01/28 06:27:23;;;;;;;23.67;9.43;;;;;;;;;;4990460;28;20034;-63
2021/01/28 06:30:08;;;;;;;23.20;9.73;;;;;;;;;;4990940;28;20470;-64
2021/01/28 06:32:52;;;;;;;28.02;10.15;;;;;;;;;;4990351;28;20034;-64
2021/01/28 06:35:33;;;;;;;23.33;9.57;;;;;;;;;;4991403;28;20073;-62
2021/01/28 06:38:02;;;;;;;27.80;10.35;;;;;;;;;;4991244;28;20033;-64
2021/01/28 06:40:30;;;;;;;29.77;11.85;;;;;;;;;;4990904;28;20026;-63
2021/01/28 06:43:00;;;;;;;25.27;9.85;;;;;;;;;;4988512;28;20085;-63
2021/01/28 06:45:31;;;;;;;25.00;10.35;;;;;;;;;;4991617;28;20163;-64
2021/01/28 06:48:03;;;;;;;24.73;11.77;;;;;;;;;;4992242;28;20034;-63
2021/01/28 06:50:30;;;;;;;26.85;11.10;;;;;;;;;;5013445;23;20053;-59
2021/01/28 06:53:10;;;;;;;24.85;10.23;;;;;;;;;;5012285;28;20543;-60
2021/01/28 06:55:57;;;;;;;23.85;11.00;;;;;;;;;;5010381;28;20024;-61
2021/01/28 06:58:29;;;;;;;25.83;9.63;;;;;;;;;;5019288;28;20041;-61
2021/01/28 07:01:13;;;;;;;23.38;9.55;;;;;;;;;;5011093;28;20053;-61
2021/01/28 07:03:47;;;;;;;28.33;10.73;;;;;;;;;;5029400;28;20079;-61
2021/01/28 07:06:20;;;;;;;25.58;10.48;;;;;;;;;;5021612;28;20053;-61
2021/01/28 07:08:57;;;;;;;26.88;11.20;;;;;;;;;;5009285;28;20036;-61
2021/01/28 07:11:27;;;;;;;29.38;11.40;;;;;;;;;;5011018;28;20061;-61
2021/01/28 07:13:53;;;;;;;24.42;10.07;;;;;;;;;;5009308;28;20041;-61
2021/01/28 07:16:20;;;;;;;29.73;12.35;;;;;;;;;;5019783;28;20037;-60
2021/01/28 07:18:48;;;;;;;28.23;10.88;;;;;;;;;;5016511;28;20025;-61
2021/01/28 07:21:32;;;;;;;26.38;11.50;;;;;;;;;;5012794;28;20026;-60
2021/01/28 07:24:07;;;;;;;26.58;11.15;;;;;;;;;;5011306;28;20026;-60
2021/01/28 07:27:08;;;;;;;25.92;11.27;;;;;;;;;;5010985;28;20022;-62
2021/01/28 07:29:54;;;;;;;28.33;10.60;;;;;;;;;;4968960;28;20150;-62
2021/01/28 07:32:23;;;;;;;29.75;12.93;;;;;;;;;;5005681;28;20080;-62
2021/01/28 07:35:07;;;;;;;32.08;11.13;;;;;;;;;;5010956;28;20033;-56
2021/01/28 07:37:33;;;;;;;27.77;11.45;;;;;;;;;;5010904;28;20370;-61
2021/01/28 07:39:59;;;;;;;30.08;12.15;;;;;;;;;;5010678;28;20033;-59
2021/01/28 07:42:30;;;;;;;27.85;11.13;;;;;;;;;;5010814;28;20029;-61
2021/01/28 07:44:57;;;;;;;26.50;10.05;;;;;;;;;;4997818;28;20072;-62
2021/01/28 07:47:32;;;;;;;28.05;12.05;;;;;;;;;;4995880;28;20458;-62
2021/01/28 07:50:17;;;;;;;26.80;12.13;;;;;;;;;;5029958;28;20045;-61
2021/01/28 07:52:43;;;;;;;25.63;10.75;;;;;;;;;;5028405;28;20105;-62
2021/01/28 07:55:29;;;;;;;28.05;11.23;;;;;;;;;;5024383;28;20018;-63
2021/01/28 07:57:56;;;;;;;31.70;11.52;;;;;;;;;;5010130;28;20041;-61
2021/01/28 08:00:30;;;;;;;23.67;10.13;;;;;;;;;;5010957;28;20068;-63
2021/01/28 08:03:05;;;;;;;22.98;9.82;;;;;;;;;;5013270;28;20116;-63
2021/01/28 08:05:34;;;;;;;20.45;9.20;;;;;;;;;;5017151;28;20421;-62
2021/01/28 08:08:09;;;;;;;22.27;7.90;;;;;;;;;;5016747;28;20038;-62
2021/01/28 08:10:37;;;;;;;21.67;8.85;;;;;;;;;;5033807;28;20485;-58
2021/01/28 08:13:06;;;;;;;20.52;9.02;;;;;;;;;;5006914;28;20026;-60
2021/01/28 08:15:39;;;;;;;25.17;9.23;;;;;;;;;;5005666;28;20029;-58
2021/01/28 08:18:25;;;;;;;25.38;9.80;;;;;;;;;;5015993;28;20083;-62
2021/01/28 08:21:03;;;;;;;26.80;11.32;;;;;;;;;;5021405;28;20033;-60
2021/01/28 08:23:29;;;;;;;26.30;10.30;;;;;;;;;;5015912;28;20422;-60
2021/01/28 08:25:56;;;;;;;31.77;12.70;;;;;;;;;;5020787;28;20101;-62
2021/01/28 08:28:24;;;;;;;31.92;12.48;;;;;;;;;;5013993;28;20508;-61
2021/01/28 08:30:57;;;;;;;31.73;13.25;;;;;;;;;;5014107;28;20441;-60
2021/01/28 08:33:26;;;;;;;27.20;12.23;;;;;;;;;;5033502;28;20025;-62
2021/01/28 08:35:56;;;;;;;29.00;11.75;;;;;;;;;;5013210;28;20040;-60
2021/01/28 08:38:28;;;;;;;33.65;13.07;;;;;;;;;;5023348;28;20527;-59
2021/01/28 08:41:12;;;;;;;29.27;13.93;;;;;;;;;;5018928;28;20192;-61
2021/01/28 08:43:39;;;;;;;31.33;13.30;;;;;;;;;;5019032;28;20029;-61
2021/01/28 08:46:10;;;;;;;30.05;12.75;;;;;;;;;;5026031;28;20393;-59
2021/01/28 08:48:36;;;;;;;28.40;13.07;;;;;;;;;;5012811;28;20025;-61
2021/01/28 08:51:04;;;;;;;28.42;13.38;;;;;;;;;;5011268;28;20038;-59
2021/01/28 08:53:30;;;;;;;29.38;13.35;;;;;;;;;;5014418;28;20034;-58
2021/01/28 08:56:07;;;;;;;36.33;13.20;;;;;;;;;;5015562;28;20034;-55
2021/01/28 08:58:40;;;;;;;27.48;11.77;;;;;;;;;;5026155;28;20029;-60
2021/01/28 09:01:07;;;;;;;24.63;10.85;;;;;;;;;;5033846;28;20120;-58
2021/01/28 09:03:48;;;;;;;26.63;11.52;;;;;;;;;;5015221;28;20028;-60
2021/01/28 09:06:14;;;;;;;25.63;10.55;;;;;;;;;;5012733;28;20393;-61
2021/01/28 09:08:42;;;;;;;30.92;9.98;;;;;;;;;;5019993;28;20030;-66
2021/01/28 09:11:21;;;;;;;27.02;11.25;;;;;;;;;;5012460;28;20465;-65
2021/01/28 09:14:06;;;;;;;28.20;11.73;;;;;;;;;;5013225;28;20148;-65
2021/01/28 09:16:33;;;;;;;25.25;11.63;;;;;;;;;;5023356;28;20087;-66
2021/01/28 09:19:13;;;;;;;23.42;10.13;;;;;;;;;;5020234;28;20025;-63
2021/01/28 09:21:40;;;;;;;28.75;10.38;;;;;;;;;;5015795;28;20103;-65
2021/01/28 09:24:18;;;;;;;27.25;10.27;;;;;;;;;;5015982;28;20097;-60
2021/01/28 09:26:44;;;;;;;24.27;9.80;;;;;;;;;;5016021;28;20480;-66
2021/01/28 09:29:10;;;;;;;25.20;10.68;;;;;;;;;;5032416;28;20029;-64
2021/01/28 09:31:36;;;;;;;23.80;9.68;;;;;;;;;;5013757;28;20044;-65
2021/01/28 09:34:16;;;;;;;23.00;10.40;;;;;;;;;;5013835;28;20041;-62
2021/01/28 09:36:43;;;;;;;27.88;11.77;;;;;;;;;;5006578;28;20054;-65
2021/01/28 09:39:09;;;;;;;27.50;11.82;;;;;;;;;;5005052;28;20019;-57
2021/01/28 09:41:43;;;;;;;23.65;10.45;;;;;;;;;;5002907;28;20029;-64
2021/01/28 09:44:27;;;;;;;24.95;10.95;;;;;;;;;;5006469;28;20028;-62
2021/01/28 09:47:12;;;;;;;23.67;10.73;;;;;;;;;;5014619;28;20397;-65
2021/01/28 09:49:39;;;;;;;25.95;10.73;;;;;;;;;;4998790;28;20030;-65
2021/01/28 09:52:05;;;;;;;35.65;13.65;;;;;;;;;;5004950;28;20040;-64
2021/01/28 09:54:34;;;;;;;30.42;12.18;;;;;;;;;;5017856;28;20030;-56
2021/01/28 09:57:00;;;;;;;;;;;;;;;;;;5007200;28;20392;-61
2021/01/28 09:59:26;;;;;;;26.67;11.07;;;;;;;;;;5005839;28;19916;-57
2021/01/28 10:01:53;;;;;;;26.02;11.60;;;;;;;;;;4984865;28;20018;-57
2021/01/28 10:04:20;;;;;;;28.17;10.73;;;;;;;;;;5002377;28;20018;-58
2021/01/28 10:06:46;;;;;;;27.13;11.50;;;;;;;;;;4984764;28;20574;-56
2021/01/28 10:09:12;;;;;;;29.50;11.50;;;;;;;;;;5012691;28;20026;-59
2021/01/28 10:11:39;;;;;;;28.55;12.43;;;;;;;;;;5014557;28;20030;-55
2021/01/28 10:14:05;;;;;;;29.58;11.88;;;;;;;;;;5000790;28;20022;-56
2021/01/28 10:16:32;;;;;;;26.58;11.15;;;;;;;;;;4998952;28;20116;-58
2021/01/28 10:18:58;;;;;;;27.27;11.77;;;;;;;;;;5011226;28;20060;-60
2021/01/28 10:21:24;;;;;;;31.38;13.10;;;;;;;;;;5011678;28;20069;-60
2021/01/28 10:23:50;;;;;;;27.67;11.82;;;;;;;;;;5012320;28;20076;-59
2021/01/28 10:26:16;;;;;;;29.08;13.27;;;;;;;;;;5012377;28;20022;-57
2021/01/28 10:28:42;;;;;;;28.52;11.85;;;;;;;;;;5014581;28;20026;-56
2021/01/28 10:31:09;;;;;;;28.42;11.77;;;;;;;;;;5032166;28;20036;-56
2021/01/28 10:33:36;;;;;;;28.23;11.82;;;;;;;;;;5014404;28;20120;-58
2021/01/28 10:36:02;;;;;;;20.85;10.10;;;;;;;;;;5031919;28;20080;-56
2021/01/28 10:38:28;;;;;;;21.20;9.65;;;;;;;;;;5010332;28;20033;-57
2021/01/28 10:40:55;;;;;;;25.13;10.80;;;;;;;;;;5031246;28;20025;-59
2021/01/28 10:43:22;;;;;;;24.65;11.07;;;;;;;;;;5014589;28;20113;-59
2021/01/28 10:45:49;;;;;;;27.42;10.98;;;;;;;;;;5014358;28;20095;-59
2021/01/28 10:48:16;;;;;;;22.05;9.15;;;;;;;;;;5022015;28;20029;-54
2021/01/28 10:50:43;;;;;;;23.88;10.25;;;;;;;;;;5010002;28;20516;-59
2021/01/28 10:53:09;;;;;;;26.45;11.38;;;;;;;;;;5020827;28;20040;-58
2021/01/28 10:55:35;;;;;;;21.98;9.57;;;;;;;;;;5024596;28;20021;-59
2021/01/28 10:58:01;;;;;;;25.90;10.25;;;;;;;;;;5013686;28;20084;-59
2021/01/28 11:00:28;;;;;;;21.15;9.90;;;;;;;;;;5010678;28;20390;-56
2021/01/28 11:02:55;;;;;;;20.08;8.77;;;;;;;;;;5011984;28;20121;-57
2021/01/28 11:05:24;;;;;;;19.23;9.27;;;;;;;;;;5010229;28;20030;-60
2021/01/28 11:07:50;;;;;;;21.55;8.80;;;;;;;;;;5014020;28;20049;-59
2021/01/28 11:10:18;;;;;;;21.23;9.25;;;;;;;;;;5028868;28;20064;-59
2021/01/28 11:12:44;;;;;;;23.10;10.18;;;;;;;;;;5012832;28;20068;-55
2021/01/28 11:15:13;;;;;;;22.40;9.23;;;;;;;;;;5011673;28;20026;-59
2021/01/28 11:17:39;;;;;;;25.35;10.15;;;;;;;;;;4986661;28;20030;-53
2021/01/28 11:20:06;;;;;;;19.63;9.88;;;;;;;;;;5001462;28;20022;-59
2021/01/28 11:22:32;;;;;;;22.27;9.68;;;;;;;;;;4982964;28;20105;-56
2021/01/28 11:24:58;;;;;;;22.13;9.20;;;;;;;;;;4984674;28;20057;-60
2021/01/28 11:27:25;;;;;;;24.17;9.95;;;;;;;;;;5001607;28;20022;-53
2021/01/28 11:29:52;;;;;;;23.98;9.43;;;;;;;;;;5002664;28;20026;-57
2021/01/28 11:32:18;;;;;;;23.15;10.43;;;;;;;;;;4974269;28;20486;-54
2021/01/28 11:34:44;;;;;;;22.63;9.25;;;;;;;;;;4974467;28;20022;-59
2021/01/28 11:37:10;;;;;;;20.67;9.68;;;;;;;;;;4995252;28;20080;-58
2021/01/28 11:39:36;;;;;;;22.73;10.52;;;;;;;;;;4977853;28;20432;-57
2021/01/28 11:42:03;;;;;;;24.15;10.75;;;;;;;;;;4978302;28;20158;-57
2021/01/28 11:44:29;;;;;;;20.50;9.50;;;;;;;;;;4978196;28;20037;-56
2021/01/28 11:46:55;;;;;;;23.23;10.73;;;;;;;;;;4984618;28;20482;-58
2021/01/28 11:49:21;;;;;;;23.20;10.32;;;;;;;;;;4987456;28;20022;-57
2021/01/28 11:51:47;;;;;;;21.38;10.00;;;;;;;;;;4988476;28;20040;-53
2021/01/28 11:54:13;;;;;;;23.85;9.70;;;;;;;;;;4992348;28;20080;-57
2021/01/28 11:56:39;;;;;;;26.75;10.65;;;;;;;;;;5012146;28;20029;-57
2021/01/28 11:59:05;;;;;;;21.27;9.10;;;;;;;;;;5015063;28;20030;-54
2021/01/28 12:01:31;;;;;;;21.08;9.27;;;;;;;;;;5014839;28;20045;-60
2021/01/28 12:03:58;;;;;;;22.02;9.57;;;;;;;;;;5012042;28;20088;-57
2021/01/28 12:06:32;;;;;;;24.04;9.80;;;;;;;;;;4930129;28;10000918;-58
2021/01/28 12:08:59;;;;;;;19.73;9.05;;;;;;;;;;5012516;28;20258;-60
2021/01/28 12:11:25;;;;;;;24.55;9.82;;;;;;;;;;5028288;28;20030;-59
2021/01/28 12:13:51;;;;;;;19.88;9.55;;;;;;;;;;5004792;28;20038;-58
2021/01/28 12:16:17;;;;;;;22.30;8.65;;;;;;;;;;4994012;28;20033;-58
2021/01/28 12:18:43;;;;;;;21.80;9.70;;;;;;;;;;5011270;28;20081;-59
2021/01/28 12:21:09;;;;;;;22.13;8.80;;;;;;;;;;4994029;28;20026;-53
2021/01/28 12:23:36;;;;;;;20.55;8.98;;;;;;;;;;5011440;28;20033;-59
2021/01/28 12:26:02;;;;;;;20.00;8.60;;;;;;;;;;5011274;28;20034;-59
2021/01/28 12:28:28;;;;;;;20.20;8.30;;;;;;;;;;5010928;28;20465;-59
2021/01/28 12:30:54;;;;;;;21.05;8.57;;;;;;;;;;5009637;28;20076;-61
2021/01/28 12:33:20;;;;;;;23.15;9.10;;;;;;;;;;5009952;28;20030;-59
2021/01/28 12:35:46;;;;;;;19.35;8.45;;;;;;;;;;5009930;28;20041;-60
2021/01/28 12:38:12;;;;;;;20.63;8.05;;;;;;;;;;5010998;28;20038;-52
2021/01/28 12:40:38;;;;;;;17.52;7.85;;;;;;;;;;5011004;28;20739;-59
2021/01/28 12:43:06;;;;;;;19.35;7.75;;;;;;;;;;5011260;28;20476;-58
2021/01/28 12:45:32;;;;;;;20.55;8.35;;;;;;;;;;5011067;28;20064;-59
2021/01/28 12:47:58;;;;;;;19.17;7.05;;;;;;;;;;5010285;28;20054;-57
2021/01/28 12:50:24;;;;;;;19.30;8.07;;;;;;;;;;5038383;23;20042;-60
2021/01/28 12:52:50;;;;;;;20.95;7.90;;;;;;;;;;5032718;28;20527;-57
2021/01/28 12:55:16;;;;;;;20.20;8.00;;;;;;;;;;5050216;28;20028;-62
2021/01/28 12:57:43;;;;;;;19.23;8.43;;;;;;;;;;5031285;28;20033;-63
2021/01/28 13:00:11;;;;;;;18.13;7.40;;;;;;;;;;5027821;28;20030;-62
2021/01/28 13:02:37;;;;;;;19.00;7.28;;;;;;;;;;4995219;28;20026;-57
2021/01/28 13:05:03;;;;;;;17.70;7.47;;;;;;;;;;4996389;28;20072;-57
2021/01/28 13:07:29;;;;;;;17.50;7.18;;;;;;;;;;5014308;28;20030;-54
2021/01/28 13:09:55;;;;;;;17.92;7.25;;;;;;;;;;4995707;28;20287;-58
2021/01/28 13:12:21;;;;;;;20.33;8.18;;;;;;;;;;5013834;28;20018;-62
2021/01/28 13:14:48;;;;;;;18.42;7.45;;;;;;;;;;5014162;28;20073;-58
2021/01/28 13:17:15;;;;;;;17.98;7.80;;;;;;;;;;5012723;28;20128;-55
2021/01/28 13:19:41;;;;;;;16.67;7.05;;;;;;;;;;5013292;28;20071;-60
2021/01/28 13:22:07;;;;;;;18.65;7.22;;;;;;;;;;5012870;28;20030;-61
2021/01/28 13:24:33;;;;;;;18.73;8.00;;;;;;;;;;5012889;28;20022;-57
2021/01/28 13:26:59;;;;;;;19.50;8.25;;;;;;;;;;5013388;28;20029;-58
2021/01/28 13:29:26;;;;;;;17.50;6.90;;;;;;;;;;5029795;28;20037;-58
2021/01/28 13:31:52;;;;;;;17.55;6.57;;;;;;;;;;5025700;28;20423;-59
2021/01/28 13:34:18;;;;;;;17.80;6.80;;;;;;;;;;5031405;28;20017;-60
2021/01/28 13:36:44;;;;;;;17.55;7.00;;;;;;;;;;5010271;28;20076;-58
2021/01/28 13:39:10;;;;;;;17.35;7.15;;;;;;;;;;4994053;28;20041;-58
2021/01/28 13:41:36;;;;;;;16.48;6.50;;;;;;;;;;5007866;28;20113;-56
2021/01/28 13:44:03;;;;;;;18.73;7.70;;;;;;;;;;4998736;28;20022;-56
2021/01/28 13:46:30;;;;;;;16.45;6.28;;;;;;;;;;5032726;28;20032;-60
2021/01/28 13:48:56;;;;;;;16.67;6.63;;;;;;;;;;5014256;28;20033;-55
2021/01/28 13:51:22;;;;;;;17.80;6.40;;;;;;;;;;5014530;28;20504;-60
2021/01/28 13:53:47;;;;;;;16.83;6.00;;;;;;;;;;5029901;28;20037;-51
2021/01/28 13:56:14;;;;;;;15.70;6.43;;;;;;;;;;5032998;28;20038;-59
2021/01/28 13:58:40;;;;;;;17.33;6.72;;;;;;;;;;5013315;28;20394;-52
2021/01/28 14:01:06;;;;;;;18.20;8.13;;;;;;;;;;5030092;28;20032;-55
2021/01/28 14:03:32;;;;;;;17.70;6.28;;;;;;;;;;5012287;28;20022;-59
2021/01/28 14:05:58;;;;;;;17.75;7.05;;;;;;;;;;5023363;28;20095;-58
2021/01/28 14:08:24;;;;;;;19.00;7.93;;;;;;;;;;5013409;28;20033;-62
2021/01/28 14:10:50;;;;;;;19.40;7.60;;;;;;;;;;5015556;28;20483;-59
2021/01/28 14:13:16;;;;;;;16.00;6.72;;;;;;;;;;5029133;28;20040;-59
2021/01/28 14:15:42;;;;;;;18.17;7.30;;;;;;;;;;5014164;28;20030;-58